sensor_id;sensor_type;location;lat;lon;timestamp;pressure;altitude;pressure_sealevel;temperature;humidity
60212;BME280;46079;48.686;15.598;2023-04-07T00:00:41;99885.63;;;19.87;39.29
60212;BME280;46079;48.686;15.598;2023-04-07T00:03:07;99883.84;;;19.88;39.26
60212;BME280;46079;48.686;15.598;2023-04-07T00:05:33;99890.06;;;19.87;39.19
60212;BME280;46079;48.686;15.598;2023-04-07T00:07:58;99892.69;;;19.87;39.40
60212;BME280;46079;48.686;15.598;2023-04-07T00:10:24;99886.63;;;19.86;39.45
60212;BME280;46079;48.686;15.598;2023-04-07T00:12:50;99891.88;;;19.86;39.22
60212;BME280;46079;48.686;15.598;2023-04-07T00:15:18;99883.00;;;19.87;39.48
60212;BME280;46079;48.686;15.598;2023-04-07T00:17:43;99884.81;;;19.87;39.38
60212;BME280;46079;48.686;15.598;2023-04-07T00:20:09;99879.69;;;19.85;39.51
60212;BME280;46079;48.686;15.598;2023-04-07T00:22:35;99886.63;;;19.86;39.59
60212;BME280;46079;48.686;15.598;2023-04-07T00:25:00;99875.28;;;19.86;39.44
60212;BME280;46079;48.686;15.598;2023-04-07T00:27:25;99870.88;;;19.86;39.43
60212;BME280;46079;48.686;15.598;2023-04-07T00:29:51;99873.50;;;19.86;39.62
60212;BME280;46079;48.686;15.598;2023-04-07T00:32:20;99875.28;;;19.86;39.48
60212;BME280;46079;48.686;15.598;2023-04-07T00:34:45;99871.81;;;19.85;39.54
60212;BME280;46079;48.686;15.598;2023-04-07T00:37:10;99874.44;;;19.85;39.53
60212;BME280;46079;48.686;15.598;2023-04-07T00:39:36;99878.84;;;19.85;39.58
60212;BME280;46079;48.686;15.598;2023-04-07T00:42:04;99878.03;;;19.84;39.74
60212;BME280;46079;48.686;15.598;2023-04-07T00:44:31;99882.47;;;19.84;39.48
60212;BME280;46079;48.686;15.598;2023-04-07T00:46:56;99877.06;;;19.85;39.75
60212;BME280;46079;48.686;15.598;2023-04-07T00:49:23;99867.53;;;19.84;39.68
60212;BME280;46079;48.686;15.598;2023-04-07T00:51:48;99867.53;;;19.84;39.61
60212;BME280;46079;48.686;15.598;2023-04-07T00:54:14;99859.78;;;19.83;39.68
60212;BME280;46079;48.686;15.598;2023-04-07T00:56:39;99864.22;;;19.82;39.68
60212;BME280;46079;48.686;15.598;2023-04-07T00:59:05;99865.03;;;19.83;39.75
60212;BME280;46079;48.686;15.598;2023-04-07T01:01:39;99858.00;;;19.83;39.72
60212;BME280;46079;48.686;15.598;2023-04-07T01:04:11;99851.09;;;19.82;39.84
60212;BME280;46079;48.686;15.598;2023-04-07T01:06:42;99844.03;;;19.83;39.97
60212;BME280;46079;48.686;15.598;2023-04-07T01:09:21;99847.63;;;19.82;39.98
60212;BME280;46079;48.686;15.598;2023-04-07T01:11:57;99850.13;;;19.83;39.93
60212;BME280;46079;48.686;15.598;2023-04-07T01:14:25;99844.88;;;19.83;40.11
60212;BME280;46079;48.686;15.598;2023-04-07T01:16:55;99844.03;;;19.83;39.98
60212;BME280;46079;48.686;15.598;2023-04-07T01:19:35;99837.97;;;19.82;39.89
60212;BME280;46079;48.686;15.598;2023-04-07T01:22:05;99838.94;;;19.81;40.16
60212;BME280;46079;48.686;15.598;2023-04-07T01:24:54;99838.78;;;19.83;39.98
60212;BME280;46079;48.686;15.598;2023-04-07T01:29:56;99839.63;;;19.83;39.91
60212;BME280;46079;48.686;15.598;2023-04-07T01:32:24;99842.38;;;19.82;40.11
60212;BME280;46079;48.686;15.598;2023-04-07T01:34:51;99844.88;;;19.83;40.10
60212;BME280;46079;48.686;15.598;2023-04-07T01:37:19;99849.44;;;19.81;39.96
60212;BME280;46079;48.686;15.598;2023-04-07T01:39:44;99841.56;;;19.81;39.91
60212;BME280;46079;48.686;15.598;2023-04-07T01:42:11;99841.56;;;19.81;40.17
60212;BME280;46079;48.686;15.598;2023-04-07T01:44:37;99835.50;;;19.81;40.05
60212;BME280;46079;48.686;15.598;2023-04-07T01:47:03;99845.16;;;19.80;40.10
60212;BME280;46079;48.686;15.598;2023-04-07T01:49:30;99845.16;;;19.80;39.94
60212;BME280;46079;48.686;15.598;2023-04-07T01:51:57;99835.63;;;19.79;39.97
60212;BME280;46079;48.686;15.598;2023-04-07T01:54:22;99833.00;;;19.79;40.18
60212;BME280;46079;48.686;15.598;2023-04-07T01:56:48;99834.66;;;19.80;40.01
60212;BME280;46079;48.686;15.598;2023-04-07T01:59:14;99845.16;;;19.80;40.01
60212;BME280;46079;48.686;15.598;2023-04-07T02:01:39;99842.53;;;19.80;40.10
60212;BME280;46079;48.686;15.598;2023-04-07T02:04:11;99838.25;;;19.79;39.95
60212;BME280;46079;48.686;15.598;2023-04-07T02:06:52;99837.41;;;19.79;40.11
60212;BME280;46079;48.686;15.598;2023-04-07T02:09:19;99838.25;;;19.79;39.93
60212;BME280;46079;48.686;15.598;2023-04-07T02:11:45;99841.69;;;19.80;40.18
60212;BME280;46079;48.686;15.598;2023-04-07T02:14:12;99833.97;;;19.78;40.01
60212;BME280;46079;48.686;15.598;2023-04-07T02:16:40;99832.16;;;19.79;40.26
60212;BME280;46079;48.686;15.598;2023-04-07T02:19:05;99834.78;;;19.79;40.20
60212;BME280;46079;48.686;15.598;2023-04-07T02:21:33;99831.34;;;19.78;40.16
60212;BME280;46079;48.686;15.598;2023-04-07T02:24:00;99835.75;;;19.77;40.12
60212;BME280;46079;48.686;15.598;2023-04-07T02:26:26;99831.34;;;19.78;40.08
60212;BME280;46079;48.686;15.598;2023-04-07T02:28:51;99829.53;;;19.79;40.30
60212;BME280;46079;48.686;15.598;2023-04-07T02:31:17;99830.50;;;19.77;40.14
60212;BME280;46079;48.686;15.598;2023-04-07T02:33:42;99830.50;;;19.77;40.29
60212;BME280;46079;48.686;15.598;2023-04-07T02:36:08;99836.59;;;19.78;40.21
60212;BME280;46079;48.686;15.598;2023-04-07T02:38:33;99833.13;;;19.77;40.47
60212;BME280;46079;48.686;15.598;2023-04-07T02:40:58;99828.72;;;19.78;40.12
60212;BME280;46079;48.686;15.598;2023-04-07T02:43:24;99828.72;;;19.78;40.50
60212;BME280;46079;48.686;15.598;2023-04-07T02:45:50;99827.03;;;19.77;40.32
60212;BME280;46079;48.686;15.598;2023-04-07T02:48:16;99826.09;;;19.78;40.43
60212;BME280;46079;48.686;15.598;2023-04-07T02:50:41;99820.97;;;19.76;40.35
60212;BME280;46079;48.686;15.598;2023-04-07T02:53:06;99811.44;;;19.75;40.27
60212;BME280;46079;48.686;15.598;2023-04-07T02:55:32;99820.03;;;19.77;40.37
60212;BME280;46079;48.686;15.598;2023-04-07T02:57:57;99815.72;;;19.76;40.23
60212;BME280;46079;48.686;15.598;2023-04-07T03:00:23;99819.16;;;19.77;40.27
60212;BME280;46079;48.686;15.598;2023-04-07T03:02:52;99813.09;;;19.76;40.48
60212;BME280;46079;48.686;15.598;2023-04-07T03:05:17;99819.16;;;19.77;40.44
60212;BME280;46079;48.686;15.598;2023-04-07T03:07:43;99811.28;;;19.77;40.47
60212;BME280;46079;48.686;15.598;2023-04-07T03:10:08;99809.63;;;19.76;40.51
60212;BME280;46079;48.686;15.598;2023-04-07T03:12:34;99806.03;;;19.77;40.37
60212;BME280;46079;48.686;15.598;2023-04-07T03:15:00;99811.28;;;19.77;40.30
60212;BME280;46079;48.686;15.598;2023-04-07T03:17:26;99816.53;;;19.77;40.26
60212;BME280;46079;48.686;15.598;2023-04-07T03:19:52;99811.28;;;19.77;40.20
60212;BME280;46079;48.686;15.598;2023-04-07T03:22:17;99809.53;;;19.77;40.33
60212;BME280;46079;48.686;15.598;2023-04-07T03:24:43;99807.03;;;19.76;40.30
60212;BME280;46079;48.686;15.598;2023-04-07T03:27:08;99810.63;;;19.75;40.37
60212;BME280;46079;48.686;15.598;2023-04-07T03:29:33;99808.66;;;19.77;40.36
60212;BME280;46079;48.686;15.598;2023-04-07T03:31:59;99808.66;;;19.77;40.37
60212;BME280;46079;48.686;15.598;2023-04-07T03:34:25;99801.78;;;19.76;40.47
60212;BME280;46079;48.686;15.598;2023-04-07T03:36:50;99812.25;;;19.76;40.42
60212;BME280;46079;48.686;15.598;2023-04-07T03:39:16;99803.41;;;19.77;40.49
60212;BME280;46079;48.686;15.598;2023-04-07T03:41:41;99810.34;;;19.78;40.38
60212;BME280;46079;48.686;15.598;2023-04-07T03:44:06;99804.28;;;19.77;40.57
60212;BME280;46079;48.686;15.598;2023-04-07T03:46:32;99806.91;;;19.77;40.56
60212;BME280;46079;48.686;15.598;2023-04-07T03:48:57;99803.28;;;19.79;40.36
60212;BME280;46079;48.686;15.598;2023-04-07T03:51:23;99805.91;;;19.79;40.38
60212;BME280;46079;48.686;15.598;2023-04-07T03:53:48;99805.09;;;19.78;40.56
60212;BME280;46079;48.686;15.598;2023-04-07T03:56:13;99809.38;;;19.79;40.52
60212;BME280;46079;48.686;15.598;2023-04-07T03:58:39;99805.91;;;19.79;40.40
60212;BME280;46079;48.686;15.598;2023-04-07T04:01:07;99802.31;;;19.80;40.47
60212;BME280;46079;48.686;15.598;2023-04-07T04:03:32;99807.56;;;19.80;40.36
60212;BME280;46079;48.686;15.598;2023-04-07T04:05:58;99797.06;;;19.80;40.46
60212;BME280;46079;48.686;15.598;2023-04-07T04:08:23;99803.16;;;19.80;40.28
60212;BME280;46079;48.686;15.598;2023-04-07T04:10:49;99811.03;;;19.80;40.45
60212;BME280;46079;48.686;15.598;2023-04-07T04:13:14;99804.81;;;19.81;40.48
60212;BME280;46079;48.686;15.598;2023-04-07T04:15:39;99799.56;;;19.81;40.67
60212;BME280;46079;48.686;15.598;2023-04-07T04:18:05;99804.00;;;19.81;40.47
60212;BME280;46079;48.686;15.598;2023-04-07T04:20:30;99800.41;;;19.82;40.61
60212;BME280;46079;48.686;15.598;2023-04-07T04:22:56;99803.03;;;19.82;40.47
60212;BME280;46079;48.686;15.598;2023-04-07T04:25:21;99808.16;;;19.83;40.55
60212;BME280;46079;48.686;15.598;2023-04-07T04:27:46;99797.66;;;19.83;40.53
60212;BME280;46079;48.686;15.598;2023-04-07T04:30:12;99802.91;;;19.83;40.65
60212;BME280;46079;48.686;15.598;2023-04-07T04:32:37;99798.47;;;19.84;40.66
60212;BME280;46079;48.686;15.598;2023-04-07T04:35:04;99798.31;;;19.85;40.54
60212;BME280;46079;48.686;15.598;2023-04-07T04:37:32;99795.69;;;19.85;40.76
60212;BME280;46079;48.686;15.598;2023-04-07T04:39:57;99807.88;;;19.86;40.69
60212;BME280;46079;48.686;15.598;2023-04-07T04:42:23;99801.63;;;19.87;40.65
60212;BME280;46079;48.686;15.598;2023-04-07T04:44:50;99799.00;;;19.87;40.52
60212;BME280;46079;48.686;15.598;2023-04-07T04:47:16;99796.38;;;19.87;40.37
60212;BME280;46079;48.686;15.598;2023-04-07T04:49:41;99800.69;;;19.88;40.59
60212;BME280;46079;48.686;15.598;2023-04-07T04:52:06;99804.13;;;19.89;40.48
60212;BME280;46079;48.686;15.598;2023-04-07T04:54:32;99802.34;;;19.89;40.60
60212;BME280;46079;48.686;15.598;2023-04-07T04:56:58;99803.97;;;19.90;40.62
60212;BME280;46079;48.686;15.598;2023-04-07T04:59:23;99797.78;;;19.91;40.63
60212;BME280;46079;48.686;15.598;2023-04-07T05:01:51;99801.22;;;19.92;40.62
60212;BME280;46079;48.686;15.598;2023-04-07T05:04:16;99796.00;;;19.92;40.68
60212;BME280;46079;48.686;15.598;2023-04-07T05:06:43;99794.19;;;19.92;40.62
60212;BME280;46079;48.686;15.598;2023-04-07T05:09:08;99799.44;;;19.92;40.52
60212;BME280;46079;48.686;15.598;2023-04-07T05:11:34;99796.69;;;19.94;40.60
60212;BME280;46079;48.686;15.598;2023-04-07T05:13:59;99801.09;;;19.93;40.78
60212;BME280;46079;48.686;15.598;2023-04-07T05:16:25;99794.88;;;19.94;40.69
60212;BME280;46079;48.686;15.598;2023-04-07T05:18:50;99789.63;;;19.94;40.51
60212;BME280;46079;48.686;15.598;2023-04-07T05:21:16;99797.34;;;19.96;40.59
60212;BME280;46079;48.686;15.598;2023-04-07T05:23:41;99792.97;;;19.96;40.54
60212;BME280;46079;48.686;15.598;2023-04-07T05:26:10;99799.03;;;19.97;40.66
60212;BME280;46079;48.686;15.598;2023-04-07T05:28:35;99799.84;;;19.97;40.66
60212;BME280;46079;48.686;15.598;2023-04-07T05:31:01;99798.88;;;19.98;39.12
60212;BME280;46079;48.686;15.598;2023-04-07T05:33:26;99798.75;;;20.00;40.81
60212;BME280;46079;48.686;15.598;2023-04-07T05:35:51;99799.56;;;20.01;40.51
60212;BME280;46079;48.686;15.598;2023-04-07T05:38:17;99798.59;;;20.02;40.50
60212;BME280;46079;48.686;15.598;2023-04-07T05:40:42;99807.31;;;20.02;40.78
60212;BME280;46079;48.686;15.598;2023-04-07T05:43:08;99808.16;;;20.03;40.71
60212;BME280;46079;48.686;15.598;2023-04-07T05:45:33;99809.78;;;20.04;40.67
60212;BME280;46079;48.686;15.598;2023-04-07T05:47:58;99804.53;;;20.04;40.77
60212;BME280;46079;48.686;15.598;2023-04-07T05:50:24;99810.63;;;20.04;40.74
60212;BME280;46079;48.686;15.598;2023-04-07T05:52:49;99812.31;;;20.05;40.88
60212;BME280;46079;48.686;15.598;2023-04-07T05:55:15;99805.25;;;20.06;40.72
60212;BME280;46079;48.686;15.598;2023-04-07T05:57:40;99814.78;;;20.07;40.97
60212;BME280;46079;48.686;15.598;2023-04-07T06:00:07;99815.59;;;20.07;40.80
60212;BME280;46079;48.686;15.598;2023-04-07T06:02:32;99811.19;;;20.08;40.78
60212;BME280;46079;48.686;15.598;2023-04-07T06:04:58;99810.22;;;20.09;40.75
60212;BME280;46079;48.686;15.598;2023-04-07T06:07:23;99815.47;;;20.09;40.80
60212;BME280;46079;48.686;15.598;2023-04-07T06:09:48;99816.28;;;20.09;40.91
60212;BME280;46079;48.686;15.598;2023-04-07T06:12:14;99824.03;;;20.11;40.91
60212;BME280;46079;48.686;15.598;2023-04-07T06:14:41;99818.91;;;20.09;41.04
60212;BME280;46079;48.686;15.598;2023-04-07T06:17:06;99817.00;;;20.11;40.92
60212;BME280;46079;48.686;15.598;2023-04-07T06:19:32;99812.56;;;20.12;41.12
60212;BME280;46079;48.686;15.598;2023-04-07T06:21:57;99810.63;;;20.14;41.15
60212;BME280;46079;48.686;15.598;2023-04-07T06:24:23;99817.97;;;20.10;35.51
60212;BME280;46079;48.686;15.598;2023-04-07T06:26:51;99821.41;;;20.01;32.53
60212;BME280;46079;48.686;15.598;2023-04-07T06:29:16;99818.09;;;19.89;30.50
60212;BME280;46079;48.686;15.598;2023-04-07T06:31:42;99826.91;;;19.79;30.41
60212;BME280;46079;48.686;15.598;2023-04-07T06:34:07;99821.78;;;19.67;29.18
60212;BME280;46079;48.686;15.598;2023-04-07T06:36:33;99818.28;;;19.57;28.49
60212;BME280;46079;48.686;15.598;2023-04-07T06:38:59;99823.53;;;19.47;28.57
60212;BME280;46079;48.686;15.598;2023-04-07T06:41:24;99820.03;;;19.37;27.95
60212;BME280;46079;48.686;15.598;2023-04-07T06:43:50;99819.88;;;19.29;27.77
60212;BME280;46079;48.686;15.598;2023-04-07T06:46:16;99826.59;;;19.22;28.01
60212;BME280;46079;48.686;15.598;2023-04-07T06:48:41;99826.16;;;19.17;27.89
60212;BME280;46079;48.686;15.598;2023-04-07T06:51:07;99826.69;;;19.10;27.78
60212;BME280;46079;48.686;15.598;2023-04-07T06:53:32;99821.16;;;19.04;27.67
60212;BME280;46079;48.686;15.598;2023-04-07T06:56:08;99826.94;;;18.98;27.82
60212;BME280;46079;48.686;15.598;2023-04-07T06:58:35;99822.06;;;18.93;27.57
60212;BME280;46079;48.686;15.598;2023-04-07T07:01:01;99813.63;;;18.90;27.43
60212;BME280;46079;48.686;15.598;2023-04-07T07:03:28;99803.66;;;18.83;27.48
60212;BME280;46079;48.686;15.598;2023-04-07T07:06:00;99810.97;;;18.80;27.35
60212;BME280;46079;48.686;15.598;2023-04-07T07:08:26;99815.75;;;18.75;27.11
60212;BME280;46079;48.686;15.598;2023-04-07T07:10:52;99818.72;;;18.70;27.22
60212;BME280;46079;48.686;15.598;2023-04-07T07:13:21;99827.81;;;18.66;27.32
60212;BME280;46079;48.686;15.598;2023-04-07T07:15:47;99828.91;;;18.63;27.28
60212;BME280;46079;48.686;15.598;2023-04-07T07:18:13;99831.88;;;18.59;27.47
60212;BME280;46079;48.686;15.598;2023-04-07T07:20:38;99835.59;;;18.56;27.17
60212;BME280;46079;48.686;15.598;2023-04-07T07:23:04;99829.78;;;18.53;27.12
60212;BME280;46079;48.686;15.598;2023-04-07T07:25:29;99826.59;;;18.49;27.27
60212;BME280;46079;48.686;15.598;2023-04-07T07:27:54;99827.69;;;18.47;26.97
60212;BME280;46079;48.686;15.598;2023-04-07T07:30:23;99829.75;;;18.43;27.14
60212;BME280;46079;48.686;15.598;2023-04-07T07:32:52;99826.53;;;18.39;27.10
60212;BME280;46079;48.686;15.598;2023-04-07T07:35:18;99837.97;;;18.38;27.01
60212;BME280;46079;48.686;15.598;2023-04-07T07:37:44;99842.63;;;18.35;26.83
60212;BME280;46079;48.686;15.598;2023-04-07T07:40:09;99836.69;;;18.33;26.89
60212;BME280;46079;48.686;15.598;2023-04-07T07:42:35;99838.59;;;18.31;26.56
60212;BME280;46079;48.686;15.598;2023-04-07T07:45:00;99845.63;;;18.30;26.80
60212;BME280;46079;48.686;15.598;2023-04-07T07:47:26;99840.50;;;18.29;27.10
60212;BME280;46079;48.686;15.598;2023-04-07T07:49:51;99847.66;;;18.27;26.96
60212;BME280;46079;48.686;15.598;2023-04-07T07:52:17;99844.34;;;18.25;27.09
60212;BME280;46079;48.686;15.598;2023-04-07T07:54:42;99839.09;;;18.25;27.09
60212;BME280;46079;48.686;15.598;2023-04-07T07:57:08;99841.00;;;18.22;27.26
60212;BME280;46079;48.686;15.598;2023-04-07T07:59:33;99838.53;;;18.21;27.10
60212;BME280;46079;48.686;15.598;2023-04-07T08:01:59;99842.91;;;18.20;27.12
60212;BME280;46079;48.686;15.598;2023-04-07T08:04:25;99848.28;;;18.19;26.88
60212;BME280;46079;48.686;15.598;2023-04-07T08:06:50;99852.69;;;18.18;27.32
60212;BME280;46079;48.686;15.598;2023-04-07T08:09:17;99844.84;;;18.18;27.03
60212;BME280;46079;48.686;15.598;2023-04-07T08:11:42;99858.03;;;18.17;27.36
60212;BME280;46079;48.686;15.598;2023-04-07T08:14:08;99856.41;;;18.16;27.43
60212;BME280;46079;48.686;15.598;2023-04-07T08:16:33;99850.19;;;18.17;27.45
60212;BME280;46079;48.686;15.598;2023-04-07T08:18:59;99858.16;;;18.15;27.36
60212;BME280;46079;48.686;15.598;2023-04-07T08:21:25;99847.69;;;18.15;27.26
60212;BME280;46079;48.686;15.598;2023-04-07T08:23:52;99857.22;;;18.16;27.39
60212;BME280;46079;48.686;15.598;2023-04-07T08:26:18;99852.94;;;18.15;27.47
60212;BME280;46079;48.686;15.598;2023-04-07T08:28:43;99846.88;;;18.15;27.57
60212;BME280;46079;48.686;15.598;2023-04-07T08:31:09;99850.31;;;18.15;27.74
60212;BME280;46079;48.686;15.598;2023-04-07T08:33:34;99853.88;;;18.14;27.51
60212;BME280;46079;48.686;15.598;2023-04-07T08:36:00;99846.19;;;18.13;27.54
60212;BME280;46079;48.686;15.598;2023-04-07T08:38:25;99848.09;;;18.11;27.63
60212;BME280;46079;48.686;15.598;2023-04-07T08:41:01;99853.44;;;18.09;27.71
60212;BME280;46079;48.686;15.598;2023-04-07T08:43:28;99859.63;;;18.08;28.03
60212;BME280;46079;48.686;15.598;2023-04-07T08:45:55;99845.81;;;18.06;27.79
60212;BME280;46079;48.686;15.598;2023-04-07T08:48:23;99847.72;;;18.04;27.57
60212;BME280;46079;48.686;15.598;2023-04-07T08:50:52;99850.50;;;18.03;27.84
60212;BME280;46079;48.686;15.598;2023-04-07T08:53:23;99848.94;;;18.00;27.65
60212;BME280;46079;48.686;15.598;2023-04-07T08:55:53;99842.06;;;17.99;27.69
60212;BME280;46079;48.686;15.598;2023-04-07T08:58:19;99845.75;;;17.96;27.64
60212;BME280;46079;48.686;15.598;2023-04-07T09:00:45;99855.38;;;17.96;27.64
60212;BME280;46079;48.686;15.598;2023-04-07T09:03:15;99842.69;;;17.91;27.46
60212;BME280;46079;48.686;15.598;2023-04-07T09:05:43;99850.63;;;17.90;27.31
60212;BME280;46079;48.686;15.598;2023-04-07T09:08:10;99841.25;;;17.87;27.45
60212;BME280;46079;48.686;15.598;2023-04-07T09:10:35;99829.25;;;17.85;27.41
60212;BME280;46079;48.686;15.598;2023-04-07T09:13:01;99821.53;;;17.83;27.75
60212;BME280;46079;48.686;15.598;2023-04-07T09:15:30;99828.06;;;17.89;29.73
60212;BME280;46079;48.686;15.598;2023-04-07T09:17:57;99833.50;;;17.97;32.82
60212;BME280;46079;48.686;15.598;2023-04-07T09:20:22;99837.97;;;18.06;34.37
60212;BME280;46079;48.686;15.598;2023-04-07T09:22:48;99835.47;;;18.16;34.79
60212;BME280;46079;48.686;15.598;2023-04-07T09:25:22;99826.00;;;18.25;35.07
60212;BME280;46079;48.686;15.598;2023-04-07T09:28:08;99828.84;;;18.33;35.22
60212;BME280;46079;48.686;15.598;2023-04-07T09:30:33;99827.34;;;18.40;35.27
60212;BME280;46079;48.686;15.598;2023-04-07T09:32:59;99830.41;;;18.45;35.23
60212;BME280;46079;48.686;15.598;2023-04-07T09:35:25;99832.66;;;18.50;35.14
60212;BME280;46079;48.686;15.598;2023-04-07T09:38:06;99829.69;;;18.54;35.46
60212;BME280;46079;48.686;15.598;2023-04-07T09:40:32;99833.69;;;18.58;35.78
60212;BME280;46079;48.686;15.598;2023-04-07T09:42:58;99830.81;;;18.61;36.12
60212;BME280;46079;48.686;15.598;2023-04-07T09:45:28;99826.16;;;18.65;36.21
60212;BME280;46079;48.686;15.598;2023-04-07T09:47:56;99824.09;;;18.69;36.23
60212;BME280;46079;48.686;15.598;2023-04-07T09:50:39;99827.44;;;18.71;36.13
60212;BME280;46079;48.686;15.598;2023-04-07T09:53:05;99828.03;;;18.74;36.60
60212;BME280;46079;48.686;15.598;2023-04-07T09:55:32;99823.34;;;18.78;36.43
60212;BME280;46079;48.686;15.598;2023-04-07T09:57:58;99825.03;;;18.79;36.58
60212;BME280;46079;48.686;15.598;2023-04-07T10:00:24;99822.16;;;18.82;36.59
60212;BME280;46079;48.686;15.598;2023-04-07T10:02:50;99824.63;;;18.83;36.72
60212;BME280;46079;48.686;15.598;2023-04-07T10:05:17;99824.34;;;18.86;36.74
60212;BME280;46079;48.686;15.598;2023-04-07T10:07:45;99819.81;;;18.88;36.82
60212;BME280;46079;48.686;15.598;2023-04-07T10:10:12;99814.31;;;18.92;36.64
60212;BME280;46079;48.686;15.598;2023-04-07T10:12:37;99820.38;;;18.92;36.79
60212;BME280;46079;48.686;15.598;2023-04-07T10:15:03;99820.16;;;18.95;36.78
60212;BME280;46079;48.686;15.598;2023-04-07T10:17:30;99820.81;;;18.97;36.79
60212;BME280;46079;48.686;15.598;2023-04-07T10:19:59;99816.44;;;18.98;36.88
60212;BME280;46079;48.686;15.598;2023-04-07T10:22:29;99819.75;;;19.00;36.78
60212;BME280;46079;48.686;15.598;2023-04-07T10:25:05;99817.00;;;19.01;36.88
60212;BME280;46079;48.686;15.598;2023-04-07T10:27:55;99817.69;;;19.03;36.88
60212;BME280;46079;48.686;15.598;2023-04-07T10:30:25;99808.88;;;19.04;36.81
60212;BME280;46079;48.686;15.598;2023-04-07T10:32:52;99815.75;;;19.05;36.67
60212;BME280;46079;48.686;15.598;2023-04-07T10:35:18;99804.34;;;19.06;37.07
60212;BME280;46079;48.686;15.598;2023-04-07T10:40:31;99810.00;;;19.12;36.96
60212;BME280;46079;48.686;15.598;2023-04-07T10:42:57;99803.09;;;19.10;36.78
60212;BME280;46079;48.686;15.598;2023-04-07T10:48:14;99801.88;;;19.15;37.11
60212;BME280;46079;48.686;15.598;2023-04-07T10:50:40;99797.47;;;19.15;37.07
60212;BME280;46079;48.686;15.598;2023-04-07T10:53:13;99807.78;;;19.17;37.10
60212;BME280;46079;48.686;15.598;2023-04-07T10:55:42;99809.47;;;19.18;37.36
60212;BME280;46079;48.686;15.598;2023-04-07T10:58:28;99815.44;;;19.20;37.25
60212;BME280;46079;48.686;15.598;2023-04-07T11:03:27;99811.69;;;19.22;37.14
60212;BME280;46079;48.686;15.598;2023-04-07T11:06:08;99808.13;;;19.23;37.32
60212;BME280;46079;48.686;15.598;2023-04-07T11:08:38;99803.69;;;19.24;37.31
60212;BME280;46079;48.686;15.598;2023-04-07T11:11:05;99806.19;;;19.25;37.27
60212;BME280;46079;48.686;15.598;2023-04-07T11:13:44;99808.66;;;19.27;37.39
60212;BME280;46079;48.686;15.598;2023-04-07T11:16:11;99807.72;;;19.28;37.45
60212;BME280;46079;48.686;15.598;2023-04-07T11:18:37;99809.38;;;19.29;37.17
60212;BME280;46079;48.686;15.598;2023-04-07T11:21:03;99806.75;;;19.29;37.38
60212;BME280;46079;48.686;15.598;2023-04-07T11:23:37;99791.72;;;19.31;37.23
60212;BME280;46079;48.686;15.598;2023-04-07T11:26:03;99802.88;;;19.33;37.48
60212;BME280;46079;48.686;15.598;2023-04-07T11:28:29;99803.75;;;19.33;37.37
60212;BME280;46079;48.686;15.598;2023-04-07T11:30:56;99804.56;;;19.34;37.02
60212;BME280;46079;48.686;15.598;2023-04-07T11:33:26;99804.41;;;19.36;37.08
60212;BME280;46079;48.686;15.598;2023-04-07T11:36:00;99797.38;;;19.36;37.06
60212;BME280;46079;48.686;15.598;2023-04-07T11:38:28;99797.38;;;19.36;36.73
60212;BME280;46079;48.686;15.598;2023-04-07T11:40:55;99793.81;;;19.37;36.92
60212;BME280;46079;48.686;15.598;2023-04-07T11:43:23;99794.75;;;19.36;36.74
60212;BME280;46079;48.686;15.598;2023-04-07T11:46:08;99796.41;;;19.37;37.66
60212;BME280;46079;48.686;15.598;2023-04-07T11:48:35;99791.03;;;19.39;37.75
60212;BME280;46079;48.686;15.598;2023-04-07T11:51:01;99789.09;;;19.41;38.01
60212;BME280;46079;48.686;15.598;2023-04-07T11:53:28;99785.66;;;19.40;38.37
60212;BME280;46079;48.686;15.598;2023-04-07T11:56:02;99791.72;;;19.41;38.08
60212;BME280;46079;48.686;15.598;2023-04-07T11:58:31;99786.38;;;19.42;38.19
60212;BME280;46079;48.686;15.598;2023-04-07T12:00:58;99786.38;;;19.42;38.27
60212;BME280;46079;48.686;15.598;2023-04-07T12:03:27;99778.50;;;19.42;38.20
60212;BME280;46079;48.686;15.598;2023-04-07T12:05:54;99781.94;;;19.43;38.34
60212;BME280;46079;48.686;15.598;2023-04-07T12:08:19;99780.13;;;19.43;38.19
60212;BME280;46079;48.686;15.598;2023-04-07T12:10:45;99779.31;;;19.43;38.20
60212;BME280;46079;48.686;15.598;2023-04-07T12:13:12;99774.78;;;19.45;38.25
60212;BME280;46079;48.686;15.598;2023-04-07T12:15:38;99770.47;;;19.44;38.28
60212;BME280;46079;48.686;15.598;2023-04-07T12:18:04;99773.09;;;19.44;38.25
60212;BME280;46079;48.686;15.598;2023-04-07T12:20:30;99772.97;;;19.45;38.17
60212;BME280;46079;48.686;15.598;2023-04-07T12:22:56;99776.41;;;19.46;38.24
60212;BME280;46079;48.686;15.598;2023-04-07T12:25:22;99763.31;;;19.46;38.17
60212;BME280;46079;48.686;15.598;2023-04-07T12:27:47;99766.75;;;19.46;38.32
60212;BME280;46079;48.686;15.598;2023-04-07T12:30:13;99764.13;;;19.46;37.83
60212;BME280;46079;48.686;15.598;2023-04-07T12:32:38;99764.13;;;19.46;38.18
60212;BME280;46079;48.686;15.598;2023-04-07T12:35:04;99763.19;;;19.47;38.13
60212;BME280;46079;48.686;15.598;2023-04-07T12:37:30;99765.81;;;19.47;38.09
60212;BME280;46079;48.686;15.598;2023-04-07T12:39:57;99771.06;;;19.47;38.11
60212;BME280;46079;48.686;15.598;2023-04-07T12:42:23;99777.13;;;19.48;37.99
60212;BME280;46079;48.686;15.598;2023-04-07T12:44:48;99776.31;;;19.47;38.25
60212;BME280;46079;48.686;15.598;2023-04-07T12:47:14;99771.88;;;19.48;38.26
60212;BME280;46079;48.686;15.598;2023-04-07T12:49:40;99773.53;;;19.49;38.15
60212;BME280;46079;48.686;15.598;2023-04-07T12:52:05;99777.13;;;19.48;38.09
60212;BME280;46079;48.686;15.598;2023-04-07T12:54:31;99777.13;;;19.48;38.35
60212;BME280;46079;48.686;15.598;2023-04-07T12:56:57;99775.31;;;19.48;38.22
60212;BME280;46079;48.686;15.598;2023-04-07T12:59:22;99776.97;;;19.49;38.31